Westport, MA

2:01 PM EDT on August 31, 2015 (GMT -0400)
Westport | | Change Station
CLOSE
Current Station
Personal Weather Station
Location: Westport, MA
Elevation: 43 ft
Nearby Weather Stations

Elev 43 ft 41.58 °N, 71.08 °W | Updated 1 minute ago

Partly Cloudy
Partly Cloudy
86.7 °F
Feels Like 96 °F
N
1.0
Wind Variable Wind from SW
Gusts 1.0 mph

Today
High -- | Low -- °F
--% Chance of Precip.
Yesterday
High -- | Low -- °F
Precip. -- in
6:09 AM 7:19 PM
Waning Gibbous, 94% visible
Pressure 29.93 in
Visibility 10.0 miles
Clouds Few 4800 ft
Heat Index 96 °F
Dew Point 75 °F
Humidity 68%
Rainfall in
Snow Depth Not available.
UV 8 out of 12
Pollen 9.60 out of 12
Air Quality Not available.
Flu Activity Not available.
METAR KEWB 311753Z 26010KT 10SM FEW048 30/19 A2993 RMK AO2 SLP133 T03000194 10306 20233 58014
Pressure 29.93 in
Visibility 10.0 miles
Clouds Few 4800 ft
Heat Index 96 °F
Dew Point 75 °F
Humidity 68%
Rainfall in
Snow Depth Not available.
UV 8 out of 12
Pollen 9.60 out of 12
Air Quality Not available.
Flu Activity Not available.
METAR KEWB 311753Z 26010KT 10SM FEW048 30/19 A2993 RMK AO2 SLP133 T03000194 10306 20233 58014

10-Day Weather Forecast

×

Almanac

Astronomy

Aug. 31, 2015 Rise Set
Actual Time
Civil Twilight
Nautical Twilight
Astronomical Twilight
Moon
Length of Visible Light
Length of Day
Tomorrow will be .
, % of the Moon is Illuminated

Today's Extremes

State Highs State Lows

Community

WunderPhotos

Upload Photos

1,851,324 photos uploaded!

WunderBlogs® & News

Nearby

Air Quality

  Air Quality AQ Index Pollutant
Not available.

Snow Depth

Station Depth Elevation

Earthquake Activity

City Distance Mag. Time & Date
Minimum magnitude displayed is 2.5.

Coastal Water Temperatures

Place Temperature

Stations

Nearby Weather Stations

Station Location Temp. Windchill Dew Point Humidity Wind Precip. Elev Updated Type